createdAt,value
2019-03-08T05:40:45.520Z,4.00
2019-03-08T05:41:45.433Z,4.00
2019-03-08T05:42:45.478Z,4.00
2019-03-08T05:43:45.393Z,4.00
2019-03-08T05:45:45.391Z,4.00
2019-03-08T05:46:45.356Z,8.00
2019-03-08T05:47:45.374Z,8.00
2019-03-08T05:49:45.378Z,8.00
2019-03-08T05:51:45.324Z,12.00
2019-03-08T05:52:45.308Z,12.00
2019-03-08T05:54:45.278Z,16.00
2019-03-08T05:55:45.276Z,20.00
2019-03-08T05:56:45.268Z,20.00
2019-03-08T05:58:45.245Z,24.00
2019-03-08T05:59:45.534Z,24.00
2019-03-08T06:01:45.198Z,28.00
2019-03-08T06:02:45.210Z,32.00
2019-03-08T06:03:45.184Z,36.00
2019-03-08T06:04:45.187Z,36.00
2019-03-08T06:05:45.157Z,32.00
2019-03-08T06:06:45.142Z,32.00
2019-03-08T06:07:45.133Z,36.00
2019-03-08T06:08:45.120Z,44.00
2019-03-08T06:09:45.190Z,72.00
2019-03-08T06:10:45.104Z,88.00
2019-03-08T06:11:45.107Z,108.00
2019-03-08T06:12:45.073Z,140.00
2019-03-08T06:13:45.066Z,140.00
2019-03-08T06:14:45.050Z,140.00
2019-03-08T06:15:45.052Z,168.00
2019-03-08T06:16:45.035Z,232.00
2019-03-08T06:17:45.040Z,228.00
2019-03-08T06:18:45.023Z,184.00
2019-03-08T06:19:45.001Z,204.00
2019-03-08T06:20:45.002Z,288.00
2019-03-08T06:21:44.990Z,252.00
2019-03-08T06:22:45.056Z,308.00
2019-03-08T06:23:44.967Z,364.00
2019-03-08T06:24:44.957Z,344.00
2019-03-08T06:25:44.944Z,304.00
2019-03-08T06:26:44.945Z,368.00
2019-03-08T06:27:44.912Z,432.00
2019-03-08T06:28:44.901Z,404.00
2019-03-08T06:29:44.897Z,456.00
2019-03-08T06:30:44.967Z,444.00
2019-03-08T06:31:44.897Z,504.00
2019-03-08T06:32:44.896Z,560.00
2019-03-08T06:33:44.884Z,520.00
2019-03-08T06:34:44.873Z,508.00
2019-03-08T06:35:44.832Z,576.00
2019-03-08T06:36:44.860Z,624.00
2019-03-08T06:37:44.804Z,648.00
2019-03-08T06:38:44.869Z,844.00
2019-03-08T06:39:44.828Z,780.00
2019-03-08T06:40:44.776Z,764.00
2019-03-08T06:41:44.800Z,708.00
2019-03-08T06:42:44.761Z,576.00
2019-03-08T06:43:44.737Z,476.00
2019-03-08T06:44:44.736Z,472.00
2019-03-08T06:45:44.724Z,584.00
2019-03-08T06:46:44.733Z,832.00
2019-03-08T06:47:44.697Z,1120.00
2019-03-08T06:48:44.685Z,1228.00
2019-03-08T06:49:44.680Z,1212.00
2019-03-08T06:50:44.666Z,1208.00
2019-03-08T06:51:44.667Z,1192.00
2019-03-08T06:52:44.646Z,1116.00
2019-03-08T06:53:44.645Z,988.00
2019-03-08T06:54:44.663Z,912.00
2019-03-08T06:55:44.648Z,980.00
2019-03-08T06:56:44.604Z,1044.00
2019-03-08T06:57:44.601Z,1088.00
2019-03-08T06:58:44.583Z,1048.00
2019-03-08T06:59:44.566Z,1048.00
2019-03-08T07:00:44.575Z,968.00
2019-03-08T07:01:44.579Z,892.00
2019-03-08T07:02:44.535Z,896.00
2019-03-08T07:03:44.524Z,1000.00
2019-03-08T07:04:45.594Z,1144.00
2019-03-08T07:05:44.580Z,1180.00
2019-03-08T07:06:45.569Z,1244.00
2019-03-08T07:07:44.665Z,1404.00
2019-03-08T07:08:44.551Z,1456.00
2019-03-08T07:09:44.558Z,1368.00
2019-03-08T07:10:44.532Z,1256.00
2019-03-08T07:11:44.456Z,1352.00
2019-03-08T07:12:44.536Z,1256.00
2019-03-08T07:13:44.502Z,1164.00
2019-03-08T07:14:44.484Z,984.00
2019-03-08T07:15:44.583Z,1004.00
2019-03-08T07:16:44.421Z,1064.00
2019-03-08T07:17:44.443Z,916.00
2019-03-08T07:18:44.460Z,736.00
2019-03-08T07:19:44.455Z,704.00
2019-03-08T07:20:44.354Z,800.00
2019-03-08T07:21:44.416Z,944.00
2019-03-08T07:22:44.414Z,1120.00
2019-03-08T07:23:45.391Z,1472.00
2019-03-08T07:24:44.335Z,1492.00
2019-03-08T07:25:51.087Z,1280.00
2019-03-08T07:27:09.839Z,1340.00
2019-03-08T07:28:09.812Z,1496.00
2019-03-08T07:29:09.808Z,1528.00
2019-03-08T07:30:11.241Z,1260.00
2019-03-08T07:31:09.774Z,1312.00
2019-03-08T07:32:10.832Z,1392.00
2019-03-08T07:33:09.772Z,1452.00
2019-03-08T07:34:11.092Z,1504.00
2019-03-08T07:35:09.739Z,1640.00
2019-03-08T07:36:09.719Z,1696.00
2019-03-08T07:37:11.777Z,1536.00
2019-03-08T07:38:09.717Z,1404.00
2019-03-08T07:39:09.883Z,1460.00
2019-03-08T07:40:09.807Z,1508.00
2019-03-08T07:41:09.741Z,1408.00
2019-03-08T07:42:09.844Z,1364.00
2019-03-08T07:43:09.750Z,1368.00
2019-03-08T07:44:09.703Z,1180.00
2019-03-08T07:45:17.527Z,1404.00
2019-03-08T07:46:34.862Z,1352.00
2019-03-08T07:47:34.863Z,1248.00
2019-03-08T07:48:34.860Z,1148.00
2019-03-08T07:49:35.834Z,1144.00
2019-03-08T07:50:34.846Z,1140.00
2019-03-08T07:51:34.810Z,1372.00
2019-03-08T07:52:34.828Z,1100.00
2019-03-08T07:53:34.814Z,1148.00
2019-03-08T07:54:34.780Z,1312.00
2019-03-08T07:55:34.802Z,1140.00
2019-03-08T07:56:34.735Z,1372.00
2019-03-08T07:57:34.802Z,1396.00
2019-03-08T07:58:34.761Z,1532.00
2019-03-08T07:59:34.715Z,1728.00
2019-03-08T08:00:37.757Z,2672.00
2019-03-08T08:01:34.830Z,3480.00
2019-03-08T08:02:34.709Z,4304.00
2019-03-08T08:03:34.707Z,5688.00
2019-03-08T08:04:34.688Z,6548.00
2019-03-08T08:05:34.686Z,7168.00
2019-03-08T08:06:34.648Z,7372.00
2019-03-08T08:07:34.613Z,7356.00
2019-03-08T08:08:34.615Z,7472.00
2019-03-08T08:09:34.615Z,7672.00
2019-03-08T08:10:34.590Z,7896.00
2019-03-08T08:11:34.560Z,8140.00
2019-03-08T08:12:34.558Z,8416.00
2019-03-08T08:13:35.585Z,8780.00
2019-03-08T08:14:39.520Z,9012.00
2019-03-08T08:15:35.565Z,9048.00
2019-03-08T08:16:35.565Z,9356.00
2019-03-08T08:17:34.630Z,9908.00
2019-03-08T08:18:34.584Z,10140.00
2019-03-08T08:19:34.494Z,10112.00
2019-03-08T08:20:34.512Z,10268.00
2019-03-08T08:21:34.455Z,10620.00
2019-03-08T08:22:34.476Z,10508.00
2019-03-08T08:23:34.929Z,10444.00
2019-03-08T08:24:34.422Z,10560.00
2019-03-08T08:25:37.020Z,10740.00
2019-03-08T08:26:34.396Z,11084.00
2019-03-08T08:27:34.427Z,11228.00
2019-03-08T08:28:34.333Z,11200.00
2019-03-08T08:29:35.199Z,11048.00
2019-03-08T08:30:34.340Z,10952.00
2019-03-08T08:31:34.302Z,10836.00
2019-03-08T08:32:34.310Z,10656.00
2019-03-08T08:33:34.303Z,10528.00
2019-03-08T08:34:34.289Z,10396.00
2019-03-08T08:35:34.254Z,10364.00
2019-03-08T08:36:34.240Z,10432.00
2019-03-08T08:37:34.855Z,10412.00
2019-03-08T08:38:34.238Z,10416.00
2019-03-08T08:39:34.204Z,10368.00
2019-03-08T08:40:34.203Z,10356.00
2019-03-08T08:41:34.245Z,10384.00
2019-03-08T08:42:34.170Z,10396.00
2019-03-08T08:43:34.172Z,10320.00
2019-03-08T08:44:34.179Z,10236.00
2019-03-08T08:45:34.191Z,10104.00
2019-03-08T08:46:34.224Z,8944.00
2019-03-08T08:47:34.141Z,8816.00
2019-03-08T08:48:34.115Z,8308.00
2019-03-08T08:49:34.130Z,8164.00
2019-03-08T08:50:35.638Z,6276.00
2019-03-08T08:51:34.079Z,5968.00
2019-03-08T08:52:35.115Z,5336.00
2019-03-08T08:53:34.062Z,4900.00
2019-03-08T08:54:34.037Z,4788.00
2019-03-08T08:55:34.971Z,4592.00
2019-03-08T08:56:34.078Z,4648.00
2019-03-08T08:57:34.080Z,5124.00
2019-03-08T08:58:34.084Z,6468.00
2019-03-08T08:59:34.061Z,9020.00
2019-03-08T09:00:34.509Z,10056.00
2019-03-08T09:01:34.059Z,9536.00
2019-03-08T09:02:34.036Z,8836.00
2019-03-08T09:03:34.056Z,7804.00
2019-03-08T09:04:34.093Z,7584.00
2019-03-08T09:05:34.006Z,8040.00
2019-03-08T09:06:34.009Z,8428.00
2019-03-08T09:07:34.032Z,8132.00
2019-03-08T09:08:33.976Z,7372.00
2019-03-08T09:09:33.956Z,7236.00
2019-03-08T09:10:33.940Z,7112.00
2019-03-08T09:11:33.973Z,7292.00
2019-03-08T09:12:33.938Z,7520.00
2019-03-08T09:13:33.896Z,7756.00
2019-03-08T09:14:33.880Z,7956.00
2019-03-08T09:15:33.889Z,8324.00
2019-03-08T09:16:33.910Z,8692.00
2019-03-08T09:17:33.915Z,8964.00
2019-03-08T09:18:33.861Z,9020.00
2019-03-08T09:19:33.842Z,8920.00
2019-03-08T09:20:34.833Z,9116.00
2019-03-08T09:21:34.821Z,8892.00
2019-03-08T09:22:33.811Z,7340.00
2019-03-08T09:23:33.817Z,6676.00
2019-03-08T09:24:33.868Z,6512.00
2019-03-08T09:25:33.803Z,6100.00
2019-03-08T09:26:33.780Z,6092.00
2019-03-08T09:27:33.834Z,5380.00
2019-03-08T09:28:33.918Z,4064.00
2019-03-08T09:29:40.990Z,3248.00
2019-03-08T09:31:00.065Z,3904.00
2019-03-08T09:32:00.042Z,4784.00
2019-03-08T09:33:00.070Z,5748.00
2019-03-08T09:34:00.027Z,6384.00
2019-03-08T09:34:59.997Z,8108.00
2019-03-08T09:36:00.003Z,8528.00
2019-03-08T09:36:59.907Z,7964.00
2019-03-08T09:37:59.956Z,8496.00
2019-03-08T09:38:59.947Z,9436.00
2019-03-08T09:39:59.963Z,9476.00
2019-03-08T09:41:00.072Z,8748.00
2019-03-08T09:41:59.889Z,7804.00
2019-03-08T09:43:00.040Z,8980.00
2019-03-08T09:43:59.854Z,10392.00
2019-03-08T09:44:59.913Z,11160.00
2019-03-08T09:45:59.919Z,11380.00
2019-03-08T09:46:59.857Z,11296.00
2019-03-08T09:47:59.870Z,10116.00
2019-03-08T09:48:59.880Z,8400.00
2019-03-08T09:49:59.835Z,7112.00
2019-03-08T09:50:59.826Z,6456.00
2019-03-08T09:51:59.819Z,5920.00
2019-03-08T09:52:59.920Z,5796.00
2019-03-08T09:53:59.806Z,5908.00
2019-03-08T09:55:00.798Z,5988.00
2019-03-08T09:55:59.779Z,6268.00
2019-03-08T09:56:59.762Z,6500.00
2019-03-08T09:57:59.872Z,6772.00
2019-03-08T09:58:59.745Z,6888.00
2019-03-08T09:59:59.821Z,7104.00
2019-03-08T10:00:59.718Z,7400.00
2019-03-08T10:01:59.725Z,7600.00
2019-03-08T10:02:59.696Z,7780.00
2019-03-08T10:03:59.717Z,7704.00
2019-03-08T10:04:59.869Z,7432.00
2019-03-08T10:05:59.748Z,7328.00
2019-03-08T10:07:00.695Z,7216.00
2019-03-08T10:07:59.667Z,6888.00
2019-03-08T10:08:59.696Z,6680.00
2019-03-08T10:09:59.630Z,6744.00
2019-03-08T10:10:59.625Z,6672.00
2019-03-08T10:11:59.544Z,6112.00
2019-03-08T10:12:59.602Z,5396.00
2019-03-08T10:13:59.584Z,4804.00
2019-03-08T10:14:59.570Z,4540.00
2019-03-08T10:15:59.567Z,4428.00
2019-03-08T10:16:59.548Z,4404.00
2019-03-08T10:17:59.539Z,4376.00
2019-03-08T10:18:59.539Z,4344.00
2019-03-08T10:19:59.509Z,4308.00
2019-03-08T10:20:59.477Z,4288.00
2019-03-08T10:21:59.425Z,4260.00
2019-03-08T10:22:59.416Z,4240.00
2019-03-08T10:23:59.392Z,4224.00
2019-03-08T10:24:59.377Z,4200.00
2019-03-08T10:25:59.376Z,4184.00
2019-03-08T10:26:59.412Z,4196.00
2019-03-08T10:27:59.361Z,4216.00
2019-03-08T10:28:59.348Z,4260.00
2019-03-08T10:29:59.325Z,4376.00
2019-03-08T10:31:04.223Z,4984.00
2019-03-08T10:31:59.305Z,6436.00
2019-03-08T10:32:59.306Z,6028.00
2019-03-08T10:33:59.275Z,5404.00
2019-03-08T10:34:59.265Z,5292.00
2019-03-08T10:35:59.258Z,6292.00
2019-03-08T10:36:59.262Z,8752.00
2019-03-08T10:37:59.236Z,11224.00
2019-03-08T10:38:59.239Z,11596.00
2019-03-08T10:39:59.232Z,10352.00
2019-03-08T10:40:59.203Z,11448.00
2019-03-08T10:41:59.277Z,12964.00
2019-03-08T10:42:59.212Z,12436.00
2019-03-08T10:44:08.538Z,13432.00
2019-03-08T10:45:25.100Z,14924.00
2019-03-08T10:46:25.159Z,15104.00
2019-03-08T10:47:25.067Z,13356.00
2019-03-08T10:48:25.142Z,12572.00
2019-03-08T10:49:25.145Z,10600.00
2019-03-08T10:50:25.192Z,9476.00
2019-03-08T10:51:25.125Z,8160.00
2019-03-08T10:52:25.071Z,7288.00
2019-03-08T10:53:25.013Z,7084.00
2019-03-08T10:54:25.003Z,7108.00
2019-03-08T10:55:25.087Z,7632.00
2019-03-08T10:56:24.991Z,9016.00
2019-03-08T10:57:25.029Z,10360.00
2019-03-08T10:58:24.955Z,11724.00
2019-03-08T10:59:25.005Z,13400.00
2019-03-08T11:00:25.002Z,15000.00
2019-03-08T11:01:24.941Z,17184.00
2019-03-08T11:02:25.028Z,17664.00
2019-03-08T11:03:24.895Z,15640.00
2019-03-08T11:04:24.884Z,13964.00
2019-03-08T11:05:24.863Z,12856.00
2019-03-08T11:06:24.877Z,11260.00
2019-03-08T11:07:24.880Z,10004.00
2019-03-08T11:08:29.706Z,9668.00
2019-03-08T11:09:24.824Z,10728.00
2019-03-08T11:10:24.914Z,11180.00
2019-03-08T11:11:24.807Z,10928.00
2019-03-08T11:12:24.817Z,10164.00
2019-03-08T11:13:24.814Z,10276.00
2019-03-08T11:14:26.139Z,10604.00
2019-03-08T11:15:27.155Z,10256.00
2019-03-08T11:16:25.069Z,10448.00
2019-03-08T11:17:24.738Z,10520.00
2019-03-08T11:18:24.757Z,10080.00
2019-03-08T11:19:24.720Z,9540.00
2019-03-08T11:20:24.721Z,8464.00
2019-03-08T11:21:24.697Z,8200.00
2019-03-08T11:22:24.695Z,8644.00
2019-03-08T11:23:24.674Z,8416.00
2019-03-08T11:24:24.672Z,8020.00
2019-03-08T11:25:24.656Z,8612.00
2019-03-08T11:26:24.675Z,9428.00
2019-03-08T11:27:24.656Z,9660.00
2019-03-08T11:28:24.664Z,9908.00
2019-03-08T11:29:24.610Z,10676.00
2019-03-08T11:30:24.598Z,11444.00
2019-03-08T11:31:24.624Z,12152.00
2019-03-08T11:32:24.579Z,12556.00
2019-03-08T11:33:24.724Z,12528.00
2019-03-08T11:34:25.467Z,11844.00
2019-03-08T11:35:24.562Z,10844.00
2019-03-08T11:36:24.584Z,10012.00
2019-03-08T11:37:24.548Z,8972.00
2019-03-08T11:38:24.510Z,7952.00
2019-03-08T11:39:24.503Z,7232.00
2019-03-08T11:40:24.488Z,7404.00
2019-03-08T11:41:24.497Z,8240.00
2019-03-08T11:42:24.479Z,9332.00
2019-03-08T11:43:24.461Z,10336.00
2019-03-08T11:44:24.953Z,11072.00
2019-03-08T11:45:30.700Z,11852.00
2019-03-08T11:46:50.205Z,12800.00
2019-03-08T11:47:50.197Z,12100.00
2019-03-08T11:48:50.193Z,10704.00
2019-03-08T11:49:50.182Z,10004.00
2019-03-08T11:50:50.205Z,10224.00
2019-03-08T11:51:50.198Z,10344.00
2019-03-08T11:52:50.182Z,9664.00
2019-03-08T11:53:56.221Z,8952.00
2019-03-08T11:55:15.754Z,8992.00
2019-03-08T11:56:15.757Z,9516.00
2019-03-08T11:57:15.744Z,9524.00
2019-03-08T11:58:15.731Z,9424.00
2019-03-08T11:59:15.705Z,8752.00
2019-03-08T12:00:15.710Z,7680.00
2019-03-08T12:01:15.702Z,7384.00
2019-03-08T12:02:15.689Z,7172.00
2019-03-08T12:03:15.697Z,6768.00
2019-03-08T12:04:15.663Z,6468.00
2019-03-08T12:05:15.665Z,6344.00
2019-03-08T12:06:15.652Z,6680.00
2019-03-08T12:07:15.639Z,7112.00
2019-03-08T12:08:15.628Z,7336.00
2019-03-08T12:09:15.633Z,7836.00
2019-03-08T12:10:15.585Z,7648.00
2019-03-08T12:11:16.545Z,7716.00
2019-03-08T12:12:15.560Z,8796.00
2019-03-08T12:13:15.564Z,9544.00
2019-03-08T12:14:15.654Z,9816.00
2019-03-08T12:15:21.358Z,11320.00
2019-03-08T12:16:15.575Z,12688.00
2019-03-08T12:17:15.506Z,12552.00
2019-03-08T12:18:15.521Z,12376.00
2019-03-08T12:19:15.515Z,12828.00
2019-03-08T12:20:15.483Z,13388.00
2019-03-08T12:21:15.472Z,13024.00
2019-03-08T12:22:15.456Z,12176.00
2019-03-08T12:23:15.450Z,11968.00
2019-03-08T12:24:15.505Z,12340.00
2019-03-08T12:25:15.453Z,11528.00
2019-03-08T12:26:15.414Z,9712.00
2019-03-08T12:27:15.410Z,8200.00
2019-03-08T12:28:15.434Z,7340.00
2019-03-08T12:29:15.379Z,7472.00
2019-03-08T12:30:15.422Z,8472.00
2019-03-08T12:31:15.360Z,9728.00
2019-03-08T12:32:15.370Z,11964.00
2019-03-08T12:33:15.340Z,14176.00
2019-03-08T12:34:15.410Z,14416.00
2019-03-08T12:35:15.319Z,13676.00
2019-03-08T12:36:15.335Z,12816.00
2019-03-08T12:37:15.442Z,12348.00
2019-03-08T12:38:15.288Z,12024.00
2019-03-08T12:39:15.295Z,11800.00
2019-03-08T12:40:15.268Z,12172.00
2019-03-08T12:41:15.245Z,13208.00
2019-03-08T12:42:15.257Z,14472.00
2019-03-08T12:43:15.263Z,15476.00
2019-03-08T12:44:15.217Z,15008.00
2019-03-08T12:45:15.211Z,13332.00
2019-03-08T12:46:15.204Z,12460.00
2019-03-08T12:47:15.187Z,12056.00
2019-03-08T12:48:23.723Z,12140.00
2019-03-08T12:49:40.953Z,11344.00
2019-03-08T12:50:40.941Z,9872.00
2019-03-08T12:51:40.925Z,8984.00
2019-03-08T12:52:41.002Z,8664.00
2019-03-08T12:53:40.902Z,8372.00
2019-03-08T12:54:40.905Z,8848.00
2019-03-08T12:55:40.892Z,9688.00
2019-03-08T12:56:40.871Z,10344.00
2019-03-08T12:57:40.860Z,10344.00
2019-03-08T12:58:40.873Z,9736.00
2019-03-08T12:59:40.854Z,9952.00
2019-03-08T13:00:40.831Z,9528.00
2019-03-08T13:01:40.833Z,8452.00
2019-03-08T13:02:40.804Z,8260.00
2019-03-08T13:03:40.804Z,8756.00
2019-03-08T13:04:40.792Z,8844.00
2019-03-08T13:05:40.779Z,8504.00
2019-03-08T13:06:40.757Z,8068.00
2019-03-08T13:07:40.761Z,8216.00
2019-03-08T13:08:40.811Z,9572.00
2019-03-08T13:09:40.741Z,10880.00
2019-03-08T13:10:40.730Z,10496.00
2019-03-08T13:11:40.714Z,9484.00
2019-03-08T13:12:40.696Z,9712.00
2019-03-08T13:13:40.690Z,9792.00
2019-03-08T13:14:40.686Z,8924.00
2019-03-08T13:15:42.273Z,8028.00
2019-03-08T13:16:40.660Z,7328.00
2019-03-08T13:17:40.664Z,7092.00
2019-03-08T13:18:40.633Z,7228.00
2019-03-08T13:19:40.620Z,7496.00
2019-03-08T13:20:40.606Z,7616.00
2019-03-08T13:21:40.597Z,6992.00
2019-03-08T13:22:40.587Z,6780.00
2019-03-08T13:23:40.573Z,6636.00
2019-03-08T13:24:40.569Z,6956.00
2019-03-08T13:25:42.090Z,8060.00
2019-03-08T13:26:40.560Z,9892.00
2019-03-08T13:27:40.539Z,11884.00
2019-03-08T13:28:40.526Z,12780.00
2019-03-08T13:29:40.512Z,12588.00
2019-03-08T13:30:40.532Z,12688.00
2019-03-08T13:31:40.491Z,12276.00
2019-03-08T13:32:40.505Z,11536.00
2019-03-08T13:33:40.552Z,10656.00
2019-03-08T13:34:40.452Z,9792.00
2019-03-08T13:35:40.466Z,8836.00
2019-03-08T13:36:40.437Z,7880.00
2019-03-08T13:37:40.428Z,7716.00
2019-03-08T13:38:40.406Z,7800.00
2019-03-08T13:39:40.401Z,7812.00
2019-03-08T13:40:40.403Z,7692.00
2019-03-08T13:41:40.380Z,7712.00
2019-03-08T13:42:40.375Z,7732.00
2019-03-08T13:43:40.535Z,7812.00
2019-03-08T13:44:40.360Z,7788.00
2019-03-08T13:45:40.371Z,7428.00
2019-03-08T13:46:40.337Z,7016.00
2019-03-08T13:47:40.338Z,7128.00
2019-03-08T13:48:40.304Z,7176.00
2019-03-08T13:49:40.283Z,7632.00
2019-03-08T13:50:40.367Z,8204.00
2019-03-08T13:51:40.269Z,8372.00
2019-03-08T13:52:40.258Z,8800.00
2019-03-08T13:53:40.262Z,8788.00
2019-03-08T13:54:40.234Z,9324.00
2019-03-08T13:55:40.228Z,10300.00
2019-03-08T13:56:40.205Z,12120.00
2019-03-08T13:57:40.214Z,13540.00
2019-03-08T13:58:40.227Z,14000.00
2019-03-08T13:59:40.201Z,14636.00
2019-03-08T14:00:40.168Z,14192.00
2019-03-08T14:01:40.171Z,12192.00
2019-03-08T14:02:40.170Z,9620.00
2019-03-08T14:03:40.147Z,7760.00
2019-03-08T14:04:40.126Z,7064.00
2019-03-08T14:05:40.159Z,7028.00
2019-03-08T14:06:40.101Z,7004.00
2019-03-08T14:07:40.144Z,7392.00
2019-03-08T14:08:40.431Z,7644.00
2019-03-08T14:09:40.071Z,7340.00
2019-03-08T14:10:40.061Z,6892.00
2019-03-08T14:11:40.054Z,6844.00
2019-03-08T14:12:40.176Z,7820.00
2019-03-08T14:13:40.019Z,9132.00
2019-03-08T14:14:40.008Z,9440.00
2019-03-08T14:15:40.003Z,9912.00
2019-03-08T14:16:39.998Z,10248.00
2019-03-08T14:17:39.992Z,9256.00
2019-03-08T14:18:42.127Z,8620.00
2019-03-08T14:19:39.954Z,9148.00
2019-03-08T14:20:39.952Z,9436.00
2019-03-08T14:21:39.945Z,8812.00
2019-03-08T14:22:39.947Z,9036.00
2019-03-08T14:23:39.913Z,9728.00
2019-03-08T14:24:39.904Z,9968.00
2019-03-08T14:25:39.901Z,10396.00
2019-03-08T14:26:39.879Z,10600.00
2019-03-08T14:27:39.874Z,10688.00
2019-03-08T14:28:39.855Z,10652.00
2019-03-08T14:29:40.983Z,9952.00
2019-03-08T14:30:39.849Z,8720.00
2019-03-08T14:31:39.829Z,7848.00
2019-03-08T14:32:39.823Z,7112.00
2019-03-08T14:33:39.930Z,7100.00
2019-03-08T14:34:39.806Z,7332.00
2019-03-08T14:35:39.783Z,7992.00
2019-03-08T14:36:43.260Z,8084.00
2019-03-08T14:37:39.766Z,7788.00
2019-03-08T14:38:39.767Z,7400.00
2019-03-08T14:39:40.457Z,7284.00
2019-03-08T14:40:39.726Z,7580.00
2019-03-08T14:41:39.818Z,7556.00
2019-03-08T14:42:40.500Z,7404.00
2019-03-08T14:43:39.695Z,6956.00
2019-03-08T14:44:39.684Z,5980.00
2019-03-08T14:45:40.608Z,5348.00
2019-03-08T14:46:39.659Z,5384.00
2019-03-08T14:47:39.651Z,5256.00
2019-03-08T14:48:42.576Z,4724.00
2019-03-08T14:50:04.709Z,4260.00
2019-03-08T14:51:04.727Z,4440.00
2019-03-08T14:52:04.705Z,4400.00
2019-03-08T14:53:04.673Z,4644.00
2019-03-08T14:54:06.046Z,4520.00
2019-03-08T14:55:04.656Z,4128.00
2019-03-08T14:56:04.648Z,3952.00
2019-03-08T14:57:04.637Z,4216.00
2019-03-08T14:58:04.622Z,4752.00
2019-03-08T14:59:04.620Z,5628.00
2019-03-08T15:00:04.603Z,6420.00
2019-03-08T15:01:06.202Z,6524.00
2019-03-08T15:02:04.592Z,5880.00
2019-03-08T15:03:04.585Z,5464.00
2019-03-08T15:04:04.578Z,5020.00
2019-03-08T15:05:11.253Z,4568.00
2019-03-08T15:06:29.720Z,4292.00
2019-03-08T15:07:29.717Z,4620.00
2019-03-08T15:08:29.740Z,4724.00
2019-03-08T15:09:30.724Z,4352.00
2019-03-08T15:10:38.783Z,3880.00
2019-03-08T15:11:56.055Z,3004.00
2019-03-08T15:12:54.879Z,2476.00
2019-03-08T15:13:58.012Z,2216.00
2019-03-08T15:14:54.877Z,2004.00
2019-03-08T15:15:58.032Z,2092.00
2019-03-08T15:16:55.837Z,2328.00
2019-03-08T15:17:55.313Z,2712.00
2019-03-08T15:18:54.813Z,3228.00
2019-03-08T15:19:54.853Z,3900.00
2019-03-08T15:20:58.262Z,4588.00
2019-03-08T15:21:54.795Z,5140.00
2019-03-08T15:22:54.867Z,5792.00
2019-03-08T15:23:55.997Z,6868.00
2019-03-08T15:24:54.912Z,7992.00
2019-03-08T15:25:54.737Z,7884.00
2019-03-08T15:26:54.737Z,7264.00
2019-03-08T15:27:54.718Z,7076.00
2019-03-08T15:28:54.716Z,6980.00
2019-03-08T15:29:54.975Z,8096.00
2019-03-08T15:30:54.701Z,8384.00
2019-03-08T15:31:54.676Z,6792.00
2019-03-08T15:32:54.677Z,5160.00
2019-03-08T15:33:54.652Z,4112.00
2019-03-08T15:34:54.644Z,3696.00
2019-03-08T15:35:54.634Z,3340.00
2019-03-08T15:36:54.624Z,3108.00
2019-03-08T15:37:54.758Z,2912.00
2019-03-08T15:38:58.387Z,2748.00
2019-03-08T15:39:54.589Z,2656.00
2019-03-08T15:40:54.573Z,2644.00
2019-03-08T15:41:54.571Z,2780.00
2019-03-08T15:42:54.554Z,3108.00
2019-03-08T15:43:54.549Z,3512.00
2019-03-08T15:44:54.543Z,3704.00
2019-03-08T15:45:54.566Z,3460.00
2019-03-08T15:46:55.719Z,3136.00
2019-03-08T15:47:54.546Z,2940.00
2019-03-08T15:48:54.815Z,2804.00
2019-03-08T15:49:54.476Z,2472.00
2019-03-08T15:50:54.472Z,2128.00
2019-03-08T15:51:54.462Z,1864.00
2019-03-08T15:52:54.478Z,1680.00
2019-03-08T15:53:54.572Z,1532.00
2019-03-08T15:54:54.430Z,1316.00
2019-03-08T15:55:54.413Z,1080.00
2019-03-08T15:56:54.410Z,956.00
2019-03-08T15:57:54.389Z,988.00
2019-03-08T15:58:54.382Z,1044.00
2019-03-08T15:59:54.384Z,952.00
2019-03-08T16:00:54.433Z,852.00
2019-03-08T16:01:54.355Z,952.00
2019-03-08T16:02:54.721Z,1156.00
2019-03-08T16:03:54.354Z,1236.00
2019-03-08T16:04:54.323Z,1140.00
2019-03-08T16:05:54.305Z,1072.00
2019-03-08T16:06:54.296Z,1080.00
2019-03-08T16:07:57.775Z,1092.00
2019-03-08T16:08:55.294Z,1032.00
2019-03-08T16:09:54.383Z,952.00
2019-03-08T16:10:54.247Z,884.00
2019-03-08T16:11:54.242Z,816.00
2019-03-08T16:12:54.228Z,764.00
2019-03-08T16:13:54.236Z,712.00
2019-03-08T16:14:54.202Z,644.00
2019-03-08T16:15:54.206Z,588.00
2019-03-08T16:16:54.212Z,556.00
2019-03-08T16:17:54.180Z,492.00
2019-03-08T16:18:54.168Z,468.00
2019-03-08T16:19:54.149Z,472.00
2019-03-08T16:20:54.143Z,440.00
2019-03-08T16:21:54.138Z,388.00
2019-03-08T16:22:54.123Z,384.00
2019-03-08T16:23:54.109Z,372.00
2019-03-08T16:24:54.107Z,368.00
2019-03-08T16:25:54.083Z,364.00
2019-03-08T16:26:54.077Z,360.00
2019-03-08T16:27:54.083Z,364.00
2019-03-08T16:28:54.066Z,364.00
2019-03-08T16:29:54.045Z,360.00
2019-03-08T16:30:54.028Z,360.00
2019-03-08T16:31:54.021Z,344.00
2019-03-08T16:32:54.002Z,344.00
2019-03-08T16:33:54.008Z,404.00
2019-03-08T16:34:54.033Z,508.00
2019-03-08T16:35:53.982Z,568.00
2019-03-08T16:36:53.970Z,624.00
2019-03-08T16:37:53.955Z,828.00
2019-03-08T16:38:54.124Z,1160.00
2019-03-08T16:39:53.956Z,1376.00
2019-03-08T16:40:53.922Z,1472.00
2019-03-08T16:41:53.918Z,1532.00
2019-03-08T16:42:53.899Z,1588.00
2019-03-08T16:43:53.890Z,1620.00
2019-03-08T16:44:53.878Z,1640.00
2019-03-08T16:45:54.941Z,1608.00
2019-03-08T16:46:53.866Z,1564.00
2019-03-08T16:47:53.854Z,1528.00
2019-03-08T16:48:54.380Z,1480.00
2019-03-08T16:49:53.825Z,1408.00
2019-03-08T16:50:56.129Z,1328.00
2019-03-08T16:51:53.807Z,1248.00
2019-03-08T16:52:53.849Z,1176.00
2019-03-08T16:53:54.142Z,1104.00
2019-03-08T16:54:53.772Z,1044.00
2019-03-08T16:55:53.762Z,984.00
2019-03-08T16:56:53.775Z,912.00
2019-03-08T16:57:53.771Z,828.00
2019-03-08T16:58:53.733Z,732.00
2019-03-08T16:59:53.714Z,628.00
2019-03-08T17:00:53.719Z,536.00
2019-03-08T17:01:53.707Z,456.00
2019-03-08T17:02:53.685Z,392.00
2019-03-08T17:03:53.682Z,360.00
2019-03-08T17:04:53.726Z,360.00
2019-03-08T17:05:53.644Z,384.00
2019-03-08T17:06:53.640Z,408.00
2019-03-08T17:07:53.638Z,420.00
2019-03-08T17:08:53.626Z,424.00
2019-03-08T17:09:53.613Z,416.00
2019-03-08T17:10:53.590Z,396.00
2019-03-08T17:11:53.590Z,376.00
2019-03-08T17:12:56.596Z,352.00
2019-03-08T17:13:53.562Z,332.00
2019-03-08T17:14:53.546Z,312.00
2019-03-08T17:15:53.542Z,292.00
2019-03-08T17:16:53.528Z,280.00
2019-03-08T17:17:53.516Z,260.00
2019-03-08T17:18:53.501Z,244.00
2019-03-08T17:19:53.488Z,228.00
2019-03-08T17:20:53.480Z,212.00
2019-03-08T17:21:53.463Z,192.00
2019-03-08T17:22:53.468Z,180.00
2019-03-08T17:23:53.460Z,164.00
2019-03-08T17:24:53.438Z,148.00
2019-03-08T17:25:53.450Z,132.00
2019-03-08T17:26:53.414Z,120.00
2019-03-08T17:27:53.408Z,108.00
2019-03-08T17:28:53.399Z,96.00
2019-03-08T17:29:53.389Z,88.00
2019-03-08T17:30:53.395Z,76.00
2019-03-08T17:31:53.418Z,68.00
2019-03-08T17:32:53.350Z,60.00
2019-03-08T17:33:53.344Z,52.00
2019-03-08T17:34:53.335Z,44.00
2019-03-08T17:35:53.503Z,40.00
2019-03-08T17:36:53.335Z,36.00
2019-03-08T17:37:53.315Z,28.00
2019-03-08T17:38:54.915Z,24.00
2019-03-08T17:39:53.282Z,20.00
2019-03-08T17:40:53.328Z,16.00
2019-03-08T17:41:53.293Z,16.00
2019-03-08T17:42:53.246Z,12.00
2019-03-08T17:43:53.267Z,12.00
2019-03-08T17:44:53.232Z,8.00
2019-03-08T17:45:53.222Z,8.00
2019-03-08T17:46:53.212Z,8.00
2019-03-08T17:47:53.199Z,8.00
2019-03-08T17:48:53.185Z,4.00
2019-03-08T17:49:53.173Z,4.00
2019-03-08T17:50:53.161Z,4.00
2019-03-08T17:51:53.152Z,4.00
2019-03-08T17:52:53.142Z,4.00
2019-03-08T17:53:53.126Z,0.00
2019-03-08T17:54:53.139Z,0.00
2019-03-08T17:55:53.121Z,0.00
2019-03-08T17:56:53.100Z,0.00
2019-03-08T17:57:53.092Z,0.00
2019-03-08T17:58:53.080Z,0.00
2019-03-08T17:59:53.060Z,0.00